CheckWX is a tool to help pilots better visualize weather data.  It is not intended as a substitute for an official pre-flight weather briefing.

04:43:03 UTC

LQTZ TAF
Tuzla International Airport
Tuzla, Bosnia and Herzegovina
TAF LQTZ 221700Z 2218/2318 VRB02KT CAVOK TX20/2314Z TNM02/2306Z PROB40 2303/2307 3000 BR

Mar-22@
18:00 UTC

Mar-22 @ 18:00 UTC

Mar-23@
18:00 UTC

Mar-23 @ 18:00 UTC

TAF LQTZ 221700Z 2218/2318 VRB02KT CAVOK TX20/2314Z TNM02/2306Z
Wind
  • Variable at 2 KTS
Cloud Levels
  • No significant clouds

Mar-23@
03:00 UTC

Mar-23 @ 03:00 UTC

Mar-23@
07:00 UTC

Mar-23 @ 07:00 UTC

PROB40 2303/2307 3000 BR

Probable - 40% Likelihood

Probable - 40% Likelihood during this time.

Conditions
Mist